createdAt,value
2019-02-15T00:02:08.967Z,55.33
2019-02-15T00:04:33.406Z,55.06
2019-02-15T00:06:57.897Z,55.59
2019-02-15T00:09:22.299Z,55.63
2019-02-15T00:11:46.737Z,55.69
2019-02-15T00:14:11.205Z,55.33
2019-02-15T00:16:35.639Z,55.46
2019-02-15T00:19:01.689Z,55.20
2019-02-15T00:21:26.677Z,55.09
2019-02-15T00:23:51.078Z,55.53
2019-02-15T00:26:16.681Z,55.63
2019-02-15T00:28:41.185Z,55.78
2019-02-15T00:31:06.585Z,56.02
2019-02-15T00:33:30.987Z,56.43
2019-02-15T00:35:55.440Z,56.07
2019-02-15T00:38:19.842Z,56.09
2019-02-15T00:40:44.244Z,55.79
2019-02-15T00:43:08.738Z,56.17
2019-02-15T00:45:34.765Z,56.31
2019-02-15T00:48:06.734Z,56.61
2019-02-15T00:50:38.834Z,57.17
2019-02-15T00:53:13.957Z,56.91
2019-02-15T00:55:39.993Z,57.15
2019-02-15T00:58:06.099Z,57.26
2019-02-15T01:00:32.118Z,57.23
2019-02-15T01:03:00.616Z,57.69
2019-02-15T01:05:32.420Z,57.57
2019-02-15T01:08:14.526Z,57.40
2019-02-15T01:10:43.238Z,57.46
2019-02-15T01:13:09.297Z,57.77
2019-02-15T01:15:33.699Z,57.83
2019-02-15T01:17:58.196Z,57.97
2019-02-15T01:20:22.662Z,58.36
2019-02-15T01:22:47.068Z,58.39
2019-02-15T01:25:11.639Z,58.23
2019-02-15T01:27:52.755Z,58.41
2019-02-15T01:30:21.829Z,58.43
2019-02-15T01:32:48.008Z,58.59
2019-02-15T01:35:20.078Z,59.02
2019-02-15T01:37:48.624Z,58.82
2019-02-15T01:40:23.863Z,59.02
2019-02-15T01:42:52.840Z,58.80
2019-02-15T01:45:24.866Z,58.91
2019-02-15T01:47:49.267Z,58.93
2019-02-15T01:50:13.705Z,59.22
2019-02-15T01:52:38.123Z,59.41
2019-02-15T01:55:02.603Z,59.10
2019-02-15T01:57:27.009Z,59.11
2019-02-15T01:59:51.439Z,59.19
2019-02-15T02:02:15.924Z,59.25
2019-02-15T02:04:40.417Z,59.83
2019-02-15T02:07:04.945Z,59.94
2019-02-15T02:09:29.420Z,59.72
2019-02-15T02:11:53.911Z,59.42
2019-02-15T02:14:18.573Z,59.21
2019-02-15T02:16:43.050Z,59.22
2019-02-15T02:19:07.509Z,59.48
2019-02-15T02:21:31.961Z,59.91
2019-02-15T02:23:56.364Z,59.99
2019-02-15T02:26:20.755Z,60.13
2019-02-15T02:28:45.175Z,60.10
2019-02-15T02:31:09.585Z,59.64
2019-02-15T02:33:34.007Z,59.90
2019-02-15T02:35:58.486Z,59.88
2019-02-15T02:38:22.886Z,60.14
2019-02-15T02:40:47.291Z,60.14
2019-02-15T02:43:11.716Z,60.27
2019-02-15T02:45:36.104Z,60.08
2019-02-15T02:48:00.628Z,60.72
2019-02-15T02:50:25.000Z,60.26
2019-02-15T02:52:49.428Z,60.11
2019-02-15T02:55:13.903Z,59.90
2019-02-15T02:57:38.458Z,60.70
2019-02-15T03:00:02.936Z,60.41
2019-02-15T03:02:27.327Z,60.54
2019-02-15T03:04:51.759Z,61.18
2019-02-15T03:07:16.154Z,60.75
2019-02-15T03:09:40.581Z,60.84
2019-02-15T03:12:04.983Z,60.66
2019-02-15T03:14:29.408Z,60.59
2019-02-15T03:16:53.882Z,60.91
2019-02-15T03:19:18.295Z,60.66
2019-02-15T03:21:42.693Z,60.75
2019-02-15T03:24:07.129Z,61.48
2019-02-15T03:26:31.534Z,61.18
2019-02-15T03:28:55.948Z,60.87
2019-02-15T03:31:20.347Z,61.20
2019-02-15T03:33:44.770Z,60.66
2019-02-15T03:36:10.882Z,60.89
2019-02-15T03:38:42.891Z,61.10
2019-02-15T03:41:09.025Z,61.17
2019-02-15T03:43:33.502Z,60.88
2019-02-15T03:45:58.167Z,60.71
2019-02-15T03:48:22.565Z,60.94
2019-02-15T03:50:46.980Z,60.76
2019-02-15T03:53:11.455Z,60.90
2019-02-15T03:55:35.887Z,61.53
2019-02-15T03:58:00.349Z,61.63
2019-02-15T04:00:24.836Z,61.01
2019-02-15T04:02:49.306Z,61.12
2019-02-15T04:05:13.873Z,61.90
2019-02-15T04:07:38.291Z,61.44
2019-02-15T04:10:02.798Z,61.52
2019-02-15T04:12:27.237Z,61.10
2019-02-15T04:14:51.670Z,61.39
2019-02-15T04:17:16.085Z,61.02
2019-02-15T04:19:40.487Z,60.95
2019-02-15T04:22:04.974Z,60.95
2019-02-15T04:24:29.382Z,61.28
2019-02-15T04:26:53.805Z,60.96
2019-02-15T04:29:18.200Z,60.58
2019-02-15T04:31:42.709Z,60.49
2019-02-15T04:34:07.113Z,60.93
2019-02-15T04:36:31.535Z,61.21
2019-02-15T04:38:55.940Z,60.87
2019-02-15T04:41:20.380Z,60.61
2019-02-15T04:43:44.853Z,61.08
2019-02-15T04:46:09.296Z,60.89
2019-02-15T04:48:33.705Z,61.21
2019-02-15T04:50:58.094Z,61.17
2019-02-15T04:53:22.600Z,61.54
2019-02-15T04:55:46.998Z,61.35
2019-02-15T04:58:11.424Z,61.18
2019-02-15T05:00:35.839Z,61.24
2019-02-15T05:03:00.272Z,61.42
2019-02-15T05:05:24.669Z,61.21
2019-02-15T05:07:49.098Z,61.13
2019-02-15T05:10:13.485Z,61.19
2019-02-15T05:12:37.911Z,61.41
2019-02-15T05:15:02.314Z,61.36
2019-02-15T05:17:26.713Z,61.67
2019-02-15T05:19:51.143Z,61.81
2019-02-15T05:22:15.621Z,61.81
2019-02-15T05:24:40.072Z,62.10
2019-02-15T05:27:04.481Z,61.96
2019-02-15T05:29:28.901Z,61.71
2019-02-15T05:31:53.295Z,61.92
2019-02-15T05:34:17.779Z,61.67
2019-02-15T05:36:42.206Z,61.69
2019-02-15T05:39:07.971Z,61.98
2019-02-15T05:41:32.372Z,62.04
2019-02-15T05:43:56.804Z,61.73
2019-02-15T05:46:21.226Z,61.70
2019-02-15T05:48:45.681Z,61.67
2019-02-15T05:51:10.119Z,61.75
2019-02-15T05:53:34.574Z,61.82
2019-02-15T05:55:59.007Z,62.23
2019-02-15T05:58:23.414Z,61.71
2019-02-15T06:00:47.824Z,62.31
2019-02-15T06:03:13.806Z,62.28
2019-02-15T06:05:38.316Z,62.44
2019-02-15T06:08:02.721Z,62.10
2019-02-15T06:10:27.148Z,62.31
2019-02-15T06:12:51.547Z,62.35
2019-02-15T06:15:16.030Z,62.60
2019-02-15T06:17:40.457Z,62.38
2019-02-15T06:20:05.425Z,62.73
2019-02-15T06:22:29.819Z,62.60
2019-02-15T06:24:54.260Z,62.22
2019-02-15T06:27:18.658Z,62.21
2019-02-15T06:29:43.065Z,62.50
2019-02-15T06:32:07.577Z,62.77
2019-02-15T06:34:31.987Z,62.59
2019-02-15T06:36:56.397Z,62.50
2019-02-15T06:39:20.821Z,62.82
2019-02-15T06:41:45.248Z,62.55
2019-02-15T06:44:09.666Z,62.59
2019-02-15T06:46:34.097Z,63.09
2019-02-15T06:48:58.508Z,63.13
2019-02-15T06:51:22.945Z,63.08
2019-02-15T06:53:47.370Z,62.88
2019-02-15T06:56:11.795Z,62.82
2019-02-15T06:58:45.438Z,62.40
2019-02-15T07:01:14.607Z,62.67
2019-02-15T07:03:40.662Z,62.68
2019-02-15T07:06:05.060Z,62.78
2019-02-15T07:08:29.496Z,62.87
2019-02-15T07:10:53.894Z,62.81
2019-02-15T07:13:18.452Z,62.94
2019-02-15T07:15:42.859Z,62.97
2019-02-15T07:18:07.373Z,62.94
2019-02-15T07:20:31.775Z,62.45
2019-02-15T07:22:56.273Z,62.69
2019-02-15T07:25:20.669Z,62.60
2019-02-15T07:27:45.090Z,62.57
2019-02-15T07:30:15.487Z,62.56
2019-02-15T07:32:40.146Z,62.27
2019-02-15T07:35:05.282Z,62.27
2019-02-15T07:37:29.691Z,62.23
2019-02-15T07:39:54.209Z,62.78
2019-02-15T07:42:18.594Z,62.47
2019-02-15T07:44:43.016Z,62.92
2019-02-15T07:47:07.416Z,62.91
2019-02-15T07:49:31.858Z,62.93
2019-02-15T07:51:56.264Z,62.93
2019-02-15T07:54:20.715Z,62.48
2019-02-15T07:56:45.122Z,62.38
2019-02-15T07:59:09.538Z,62.38
2019-02-15T08:01:34.018Z,62.33
2019-02-15T08:03:58.444Z,61.83
2019-02-15T08:06:22.879Z,61.64
2019-02-15T08:08:47.288Z,61.32
2019-02-15T08:11:11.715Z,61.30
2019-02-15T08:13:36.131Z,61.25
2019-02-15T08:16:02.698Z,61.07
2019-02-15T08:18:26.703Z,60.81
2019-02-15T08:20:51.141Z,60.55
2019-02-15T08:23:15.546Z,60.82
2019-02-15T08:25:40.041Z,61.35
2019-02-15T08:28:04.544Z,60.95
2019-02-15T08:30:28.958Z,61.04
2019-02-15T08:32:53.365Z,61.34
2019-02-15T08:35:17.776Z,60.51
2019-02-15T08:37:42.182Z,60.46
2019-02-15T08:40:09.409Z,59.43
2019-02-15T08:42:33.804Z,59.53
2019-02-15T08:44:58.199Z,59.17
2019-02-15T08:47:22.667Z,59.08
2019-02-15T08:49:47.142Z,58.31
2019-02-15T08:52:11.563Z,58.03
2019-02-15T08:54:35.967Z,57.89
2019-02-15T08:57:00.387Z,57.36
2019-02-15T08:59:24.796Z,57.18
2019-02-15T09:01:50.861Z,56.67
2019-02-15T09:04:15.324Z,56.15
2019-02-15T09:06:39.743Z,55.65
2019-02-15T09:09:05.135Z,55.43
2019-02-15T09:11:29.561Z,55.65
2019-02-15T09:13:53.965Z,55.28
2019-02-15T09:16:18.453Z,54.94
2019-02-15T09:18:42.861Z,54.62
2019-02-15T09:21:07.282Z,54.73
2019-02-15T09:23:31.693Z,54.97
2019-02-15T09:25:56.120Z,54.81
2019-02-15T09:28:29.183Z,54.25
2019-02-15T09:30:54.182Z,54.10
2019-02-15T09:33:18.788Z,53.76
2019-02-15T09:35:43.286Z,53.57
2019-02-15T09:38:07.713Z,53.52
2019-02-15T09:40:32.115Z,53.56
2019-02-15T09:42:56.535Z,53.02
2019-02-15T09:45:21.045Z,52.60
2019-02-15T09:47:46.357Z,52.90
2019-02-15T09:50:12.319Z,51.80
2019-02-15T09:52:37.005Z,51.56
2019-02-15T09:55:01.430Z,51.53
2019-02-15T09:57:25.805Z,51.79
2019-02-15T09:59:50.232Z,51.46
2019-02-15T10:02:14.647Z,50.88
2019-02-15T10:04:39.095Z,51.07
2019-02-15T10:07:03.567Z,50.75
2019-02-15T10:09:28.006Z,50.14
2019-02-15T10:11:52.421Z,50.20
2019-02-15T10:14:16.844Z,49.59
2019-02-15T10:16:41.258Z,49.72
2019-02-15T10:19:05.682Z,49.32
2019-02-15T10:21:30.095Z,50.18
2019-02-15T10:23:54.596Z,48.79
2019-02-15T10:26:19.001Z,47.79
2019-02-15T10:28:43.431Z,49.74
2019-02-15T10:31:07.839Z,48.84
2019-02-15T10:33:32.236Z,48.17
2019-02-15T10:35:56.663Z,47.84
2019-02-15T10:38:21.066Z,47.42
2019-02-15T10:40:45.494Z,46.32
2019-02-15T10:43:09.894Z,45.70
2019-02-15T10:45:34.327Z,44.99
2019-02-15T10:47:58.732Z,44.27
2019-02-15T10:50:23.158Z,44.22
2019-02-15T10:52:47.575Z,43.79
2019-02-15T10:55:12.085Z,43.67
2019-02-15T10:57:36.714Z,43.31
2019-02-15T11:00:01.204Z,42.94
2019-02-15T11:02:25.631Z,43.23
2019-02-15T11:04:50.056Z,43.04
2019-02-15T11:07:14.451Z,42.42
2019-02-15T11:09:38.934Z,42.56
2019-02-15T11:12:03.365Z,41.41
2019-02-15T11:14:27.777Z,40.74
2019-02-15T11:16:52.207Z,41.08
2019-02-15T11:19:16.715Z,40.47
2019-02-15T11:21:41.140Z,40.33
2019-02-15T11:24:05.618Z,40.08
2019-02-15T11:26:30.038Z,39.13
2019-02-15T11:28:54.435Z,38.86
2019-02-15T11:31:18.943Z,37.32
2019-02-15T11:33:43.343Z,35.32
2019-02-15T11:36:07.778Z,34.36
2019-02-15T11:38:32.179Z,32.25
2019-02-15T11:40:56.617Z,30.95
2019-02-15T11:43:21.007Z,30.59
2019-02-15T11:45:45.431Z,28.86
2019-02-15T11:48:09.849Z,28.47
2019-02-15T11:50:34.386Z,26.55
2019-02-15T11:52:58.813Z,26.88
2019-02-15T11:55:23.209Z,26.71
2019-02-15T11:57:47.639Z,26.19
2019-02-15T12:00:24.004Z,25.02
2019-02-15T12:02:48.568Z,24.50
2019-02-15T12:05:13.049Z,25.01
2019-02-15T12:07:37.486Z,24.44
2019-02-15T12:10:01.953Z,23.47
2019-02-15T12:12:26.442Z,23.46
2019-02-15T12:14:50.857Z,22.93
2019-02-15T12:17:15.294Z,21.94
2019-02-15T12:19:39.697Z,21.86
2019-02-15T12:22:04.203Z,22.01
2019-02-15T12:24:28.612Z,21.04
2019-02-15T12:26:53.038Z,21.21
2019-02-15T12:29:17.474Z,20.66
2019-02-15T12:31:41.907Z,20.50
2019-02-15T12:34:07.416Z,20.62
2019-02-15T12:36:31.899Z,20.27
2019-02-15T12:38:56.325Z,20.28
2019-02-15T12:41:20.747Z,20.85
2019-02-15T12:43:45.186Z,19.89
2019-02-15T12:46:09.599Z,20.27
2019-02-15T12:48:34.020Z,18.64
2019-02-15T12:50:58.495Z,18.94
2019-02-15T12:53:23.062Z,18.43
2019-02-15T12:55:47.489Z,17.86
2019-02-15T12:58:11.940Z,17.95
2019-02-15T13:00:36.413Z,17.58
2019-02-15T13:03:00.847Z,17.98
2019-02-15T13:05:25.249Z,17.75
2019-02-15T13:07:49.678Z,17.23
2019-02-15T13:10:18.559Z,17.27
2019-02-15T13:12:43.012Z,16.91
2019-02-15T13:15:09.400Z,17.71
2019-02-15T13:17:33.835Z,17.17
2019-02-15T13:19:58.257Z,17.46
2019-02-15T13:22:22.670Z,16.64
2019-02-15T13:24:47.100Z,16.79
2019-02-15T13:27:11.506Z,16.87
2019-02-15T13:29:35.942Z,16.52
2019-02-15T13:32:00.368Z,16.16
2019-02-15T13:34:24.773Z,16.32
2019-02-15T13:36:49.259Z,16.28
2019-02-15T13:39:13.672Z,16.42
2019-02-15T13:41:38.115Z,16.21
2019-02-15T13:44:02.519Z,17.58
2019-02-15T13:46:27.083Z,16.34
2019-02-15T13:48:51.504Z,17.80
2019-02-15T13:51:15.937Z,16.21
2019-02-15T13:53:40.339Z,16.01
2019-02-15T13:56:04.763Z,15.84
2019-02-15T13:58:29.165Z,16.17
2019-02-15T14:00:53.626Z,16.13
2019-02-15T14:03:18.038Z,15.85
2019-02-15T14:05:42.468Z,15.57
2019-02-15T14:08:06.879Z,16.03
2019-02-15T14:10:31.279Z,16.10
2019-02-15T14:12:55.794Z,16.08
2019-02-15T14:15:20.283Z,15.81
2019-02-15T14:17:48.272Z,16.21
2019-02-15T14:20:13.410Z,15.63
2019-02-15T14:22:37.845Z,16.31
2019-02-15T14:25:02.257Z,16.08
2019-02-15T14:27:26.706Z,15.94
2019-02-15T14:29:51.095Z,16.08
2019-02-15T14:32:15.849Z,15.95
2019-02-15T14:34:40.252Z,15.97
2019-02-15T14:37:04.698Z,16.50
2019-02-15T14:39:29.100Z,16.03
2019-02-15T14:41:53.540Z,16.81
2019-02-15T14:44:18.021Z,15.91
2019-02-15T14:46:42.420Z,16.03
2019-02-15T14:49:06.856Z,15.70
2019-02-15T14:51:31.266Z,16.11
2019-02-15T14:53:55.693Z,16.05
2019-02-15T14:56:20.192Z,16.23
2019-02-15T14:58:44.597Z,16.51
2019-02-15T15:01:09.382Z,17.72
2019-02-15T15:03:33.810Z,17.47
2019-02-15T15:05:58.210Z,17.68
2019-02-15T15:08:22.918Z,17.22
2019-02-15T15:10:47.329Z,19.51
2019-02-15T15:13:11.840Z,20.95
2019-02-15T15:15:36.236Z,22.29
2019-02-15T15:18:12.225Z,22.38
2019-02-15T15:20:26.803Z,20.44
2019-02-15T15:22:51.212Z,20.77
2019-02-15T15:25:16.111Z,22.68
2019-02-15T15:27:40.650Z,23.24
2019-02-15T15:30:07.619Z,23.82
2019-02-15T15:32:32.041Z,22.33
2019-02-15T15:34:56.479Z,22.33
2019-02-15T15:37:20.875Z,23.90
2019-02-15T15:39:45.305Z,24.53
2019-02-15T15:42:09.714Z,24.16
2019-02-15T15:44:34.157Z,24.64
2019-02-15T15:46:58.580Z,25.77
2019-02-15T15:49:23.021Z,25.79
2019-02-15T15:51:47.419Z,26.33
2019-02-15T15:54:11.859Z,26.94
2019-02-15T15:56:36.266Z,26.96
2019-02-15T15:59:00.706Z,27.54
2019-02-15T16:01:25.183Z,27.54
2019-02-15T16:03:49.547Z,27.54
2019-02-15T16:06:23.842Z,28.27
2019-02-15T16:08:40.061Z,28.47
2019-02-15T16:11:04.497Z,29.44
2019-02-15T16:13:28.910Z,29.35
2019-02-15T16:15:53.366Z,29.41
2019-02-15T16:18:17.870Z,29.69
2019-02-15T16:20:42.299Z,29.70
2019-02-15T16:23:06.719Z,29.91
2019-02-15T16:25:31.125Z,30.90
2019-02-15T16:27:55.548Z,31.44
2019-02-15T16:30:20.035Z,31.59
2019-02-15T16:32:44.475Z,32.32
2019-02-15T16:35:09.201Z,32.21
2019-02-15T16:37:33.700Z,32.59
2019-02-15T16:39:58.109Z,33.03
2019-02-15T16:42:22.726Z,33.63
2019-02-15T16:44:47.116Z,33.96
2019-02-15T16:47:11.555Z,34.23
2019-02-15T16:49:35.970Z,33.81
2019-02-15T16:52:00.414Z,34.02
2019-02-15T16:54:24.812Z,33.92
2019-02-15T16:56:49.254Z,34.04
2019-02-15T16:59:13.662Z,33.96
2019-02-15T17:01:38.129Z,34.56
2019-02-15T17:04:02.538Z,35.13
2019-02-15T17:06:27.098Z,35.43
2019-02-15T17:08:51.528Z,35.35
2019-02-15T17:11:15.932Z,35.31
2019-02-15T17:13:40.380Z,35.74
2019-02-15T17:16:04.944Z,35.88
2019-02-15T17:18:29.464Z,36.17
2019-02-15T17:20:53.884Z,36.15
2019-02-15T17:23:18.336Z,36.21
2019-02-15T17:25:42.746Z,36.63
2019-02-15T17:28:07.180Z,36.64
2019-02-15T17:30:31.579Z,36.56
2019-02-15T17:32:56.053Z,36.89
2019-02-15T17:35:20.544Z,37.16
2019-02-15T17:37:44.970Z,37.56
2019-02-15T17:40:12.288Z,37.66
2019-02-15T17:42:36.772Z,37.23
2019-02-15T17:45:01.264Z,37.64
2019-02-15T17:47:28.720Z,38.63
2019-02-15T17:49:53.233Z,37.87
2019-02-15T17:52:17.729Z,37.47
2019-02-15T17:54:42.228Z,38.10
2019-02-15T17:57:06.648Z,37.59
2019-02-15T17:59:31.138Z,38.17
2019-02-15T18:01:55.539Z,38.18
2019-02-15T18:04:19.992Z,37.85
2019-02-15T18:06:44.409Z,37.95
2019-02-15T18:09:09.017Z,37.40
2019-02-15T18:11:33.430Z,37.76
2019-02-15T18:13:57.842Z,38.55
2019-02-15T18:16:22.287Z,38.46
2019-02-15T18:18:46.755Z,38.04
2019-02-15T18:21:11.264Z,37.66
2019-02-15T18:23:35.672Z,37.63
2019-02-15T18:26:00.171Z,38.01
2019-02-15T18:28:24.577Z,38.14
2019-02-15T18:30:49.023Z,38.10
2019-02-15T18:33:13.577Z,38.48
2019-02-15T18:35:38.020Z,38.81
2019-02-15T18:38:02.430Z,39.05
2019-02-15T18:40:26.873Z,39.02
2019-02-15T18:42:51.302Z,39.00
2019-02-15T18:45:16.797Z,39.04
2019-02-15T18:47:41.202Z,39.17
2019-02-15T18:50:07.864Z,39.56
2019-02-15T18:52:32.316Z,39.75
2019-02-15T18:54:56.729Z,39.77
2019-02-15T18:57:21.158Z,40.09
2019-02-15T18:59:45.561Z,40.27
2019-02-15T19:02:10.096Z,40.49
2019-02-15T19:04:34.566Z,40.30
2019-02-15T19:06:58.993Z,40.50
2019-02-15T19:09:23.425Z,40.93
2019-02-15T19:11:48.081Z,40.79
2019-02-15T19:14:12.647Z,40.83
2019-02-15T19:16:37.101Z,41.08
2019-02-15T19:19:01.507Z,41.37
2019-02-15T19:21:26.009Z,41.25
2019-02-15T19:23:50.493Z,41.29
2019-02-15T19:26:14.964Z,41.14
2019-02-15T19:28:39.409Z,41.05
2019-02-15T19:31:03.831Z,41.28
2019-02-15T19:33:28.284Z,41.37
2019-02-15T19:35:52.752Z,42.23
2019-02-15T19:38:17.355Z,41.99
2019-02-15T19:40:41.772Z,41.63
2019-02-15T19:43:11.758Z,42.07
2019-02-15T19:45:36.197Z,42.14
2019-02-15T19:48:00.631Z,41.91
2019-02-15T19:50:25.043Z,42.03
2019-02-15T19:52:49.732Z,42.45
2019-02-15T19:55:14.217Z,42.72
2019-02-15T19:57:38.768Z,43.19
2019-02-15T20:00:03.702Z,43.56
2019-02-15T20:02:29.624Z,44.15
2019-02-15T20:04:54.066Z,44.36
2019-02-15T20:07:18.475Z,44.85
2019-02-15T20:09:42.912Z,44.76
2019-02-15T20:12:07.410Z,44.87
2019-02-15T20:14:34.820Z,45.07
2019-02-15T20:16:59.237Z,45.52
2019-02-15T20:19:23.686Z,45.45
2019-02-15T20:21:48.107Z,45.53
2019-02-15T20:24:12.524Z,46.05
2019-02-15T20:26:36.952Z,46.39
2019-02-15T20:29:01.364Z,46.50
2019-02-15T20:31:25.852Z,46.48
2019-02-15T20:33:50.268Z,46.84
2019-02-15T20:36:14.714Z,47.02
2019-02-15T20:38:39.127Z,47.14
2019-02-15T20:41:03.636Z,46.73
2019-02-15T20:43:28.047Z,47.16
2019-02-15T20:45:52.521Z,47.77
2019-02-15T20:48:16.960Z,47.62
2019-02-15T20:50:41.374Z,48.13
2019-02-15T20:53:05.812Z,48.32
2019-02-15T20:55:30.239Z,48.72
2019-02-15T20:57:54.669Z,49.10
2019-02-15T21:00:27.197Z,49.13
2019-02-15T21:02:51.717Z,49.06
2019-02-15T21:05:16.144Z,49.23
2019-02-15T21:07:40.765Z,48.92
2019-02-15T21:10:08.487Z,49.03
2019-02-15T21:12:32.945Z,49.72
2019-02-15T21:14:57.406Z,49.47
2019-02-15T21:19:55.903Z,49.48
2019-02-15T21:22:20.417Z,49.65
2019-02-15T21:24:44.828Z,50.31
2019-02-15T21:27:09.285Z,50.34
2019-02-15T21:29:33.705Z,50.40
2019-02-15T21:31:58.482Z,50.52
2019-02-15T21:34:22.932Z,50.64
2019-02-15T21:36:47.347Z,50.91
2019-02-15T21:39:11.784Z,50.97
2019-02-15T21:41:36.194Z,50.67
2019-02-15T21:44:00.626Z,50.87
2019-02-15T21:46:25.040Z,51.38
2019-02-15T21:48:49.450Z,51.34
2019-02-15T21:51:13.887Z,51.31
2019-02-15T21:53:38.313Z,51.44
2019-02-15T21:56:02.770Z,51.36
2019-02-15T21:58:27.149Z,51.69
2019-02-15T22:00:51.656Z,51.66
2019-02-15T22:03:16.067Z,51.90
2019-02-15T22:05:40.500Z,52.00
2019-02-15T22:08:04.913Z,52.00
2019-02-15T22:10:29.334Z,51.78
2019-02-15T22:12:53.730Z,51.81
2019-02-15T22:15:18.430Z,52.11
2019-02-15T22:17:42.846Z,52.38
2019-02-15T22:20:10.221Z,52.10
2019-02-15T22:22:34.638Z,52.26
2019-02-15T22:24:59.067Z,52.97
2019-02-15T22:27:23.565Z,52.86
2019-02-15T22:29:47.998Z,52.94
2019-02-15T22:32:12.404Z,52.70
2019-02-15T22:34:36.818Z,52.75
2019-02-15T22:37:01.243Z,53.33
2019-02-15T22:39:25.639Z,53.42
2019-02-15T22:41:50.050Z,53.24
2019-02-15T22:44:14.466Z,53.29
2019-02-15T22:46:38.887Z,53.00
2019-02-15T22:49:03.286Z,53.68
2019-02-15T22:51:27.741Z,53.95
2019-02-15T22:53:52.136Z,54.36
2019-02-15T22:56:16.539Z,53.83
2019-02-15T22:58:40.979Z,53.62
2019-02-15T23:01:08.373Z,53.74
2019-02-15T23:03:32.864Z,53.87
2019-02-15T23:05:57.330Z,54.48
2019-02-15T23:08:21.828Z,54.16
2019-02-15T23:10:46.371Z,54.21
2019-02-15T23:13:10.799Z,54.56
2019-02-15T23:15:35.265Z,54.62
2019-02-15T23:17:59.779Z,54.74
2019-02-15T23:20:24.188Z,54.33
2019-02-15T23:22:48.631Z,54.12
2019-02-15T23:25:13.042Z,54.61
2019-02-15T23:27:37.473Z,55.30
2019-02-15T23:30:01.885Z,54.90
2019-02-15T23:32:26.364Z,54.76
2019-02-15T23:34:50.791Z,54.81
2019-02-15T23:37:15.198Z,55.07
2019-02-15T23:39:39.646Z,55.31
2019-02-15T23:42:04.038Z,55.22
2019-02-15T23:44:28.613Z,55.19
2019-02-15T23:46:53.048Z,55.54
2019-02-15T23:49:17.453Z,55.23
2019-02-15T23:51:41.863Z,55.37
2019-02-15T23:54:06.273Z,55.43
2019-02-15T23:56:30.714Z,55.76
2019-02-15T23:58:55.124Z,55.86
